<?xml version="1.0" encoding="UTF-8" standalone="no" ?>
<gpx xmlns="http://www.topografix.com/GPX/1/1" xmlns:xsi="http://www.w3.org/2001/XMLSchema-instance" xsi:schemaLocation="http://www.topografix.com/GPX/1/1 http://www.topografix.com/GPX/1/1/gpx.xsd" version="1.1" creator="VisuGPX - https://www.visugpx.com">
  <metadata>
    <name>JWXB81AUYJ</name>
    <desc><![CDATA[

]]></desc>
  </metadata>
  <trk>
    <name><![CDATA[JWXB81AUYJ_1]]></name>
    <trkseg>
      <trkpt lat="46.08991" lon="4.58717">
        <ele>671</ele>
        <time>2020-10-24T07:33:29Z</time>
      </trkpt>
      <trkpt lat="46.08991" lon="4.58717">
        <ele>671</ele>
        <time>2020-10-24T07:33:29Z</time>
      </trkpt>
      <trkpt lat="46.0899" lon="4.58715">
        <ele>671.2</ele>
        <time>2020-10-24T07:33:30Z</time>
      </trkpt>
      <trkpt lat="46.0899" lon="4.58715">
        <ele>671</ele>
        <time>2020-10-24T07:33:31Z</time>
      </trkpt>
      <trkpt lat="46.08987" lon="4.58717">
        <ele>671</ele>
        <time>2020-10-24T07:33:32Z</time>
      </trkpt>
      <trkpt lat="46.08987" lon="4.58717">
        <ele>670.8</ele>
        <time>2020-10-24T07:33:33Z</time>
      </trkpt>
      <trkpt lat="46.08984" lon="4.58719">
        <ele>670.6</ele>
        <time>2020-10-24T07:33:34Z</time>
      </trkpt>
      <trkpt lat="46.08984" lon="4.58719">
        <ele>670.8</ele>
        <time>2020-10-24T07:33:35Z</time>
      </trkpt>
      <trkpt lat="46.08981" lon="4.5872">
        <ele>671</ele>
        <time>2020-10-24T07:33:36Z</time>
      </trkpt>
      <trkpt lat="46.08981" lon="4.5872">
        <ele>671</ele>
        <time>2020-10-24T07:33:37Z</time>
      </trkpt>
      <trkpt lat="46.08979" lon="4.5872">
        <ele>671</ele>
        <time>2020-10-24T07:33:38Z</time>
      </trkpt>
      <trkpt lat="46.08979" lon="4.5872">
        <ele>671.2</ele>
        <time>2020-10-24T07:33:39Z</time>
      </trkpt>
      <trkpt lat="46.08978" lon="4.58722">
        <ele>671.2</ele>
        <time>2020-10-24T07:33:40Z</time>
      </trkpt>
      <trkpt lat="46.08978" lon="4.58722">
        <ele>671.2</ele>
        <time>2020-10-24T07:33:41Z</time>
      </trkpt>
      <trkpt lat="46.08977" lon="4.58726">
        <ele>671</ele>
        <time>2020-10-24T07:33:42Z</time>
      </trkpt>
      <trkpt lat="46.08977" lon="4.58726">
        <ele>671</ele>
        <time>2020-10-24T07:33:43Z</time>
      </trkpt>
      <trkpt lat="46.08975" lon="4.58731">
        <ele>671.6</ele>
        <time>2020-10-24T07:33:44Z</time>
      </trkpt>
      <trkpt lat="46.08974" lon="4.58733">
        <ele>671.4</ele>
        <time>2020-10-24T07:33:45Z</time>
      </trkpt>
      <trkpt lat="46.08974" lon="4.58733">
        <ele>671.4</ele>
        <time>2020-10-24T07:33:46Z</time>
      </trkpt>
      <trkpt lat="46.08973" lon="4.58737">
        <ele>671.6</ele>
        <time>2020-10-24T07:33:47Z</time>
      </trkpt>
      <trkpt lat="46.08973" lon="4.58737">
        <ele>671.8</ele>
        <time>2020-10-24T07:33:48Z</time>
      </trkpt>
      <trkpt lat="46.08972" lon="4.58741">
        <ele>671.6</ele>
        <time>2020-10-24T07:33:49Z</time>
      </trkpt>
      <trkpt lat="46.08972" lon="4.58741">
        <ele>671.6</ele>
        <time>2020-10-24T07:33:50Z</time>
      </trkpt>
      <trkpt lat="46.08971" lon="4.58746">
        <ele>671.6</ele>
        <time>2020-10-24T07:33:51Z</time>
      </trkpt>
      <trkpt lat="46.0897" lon="4.58749">
        <ele>671.6</ele>
        <time>2020-10-24T07:33:52Z</time>
      </trkpt>
      <trkpt lat="46.0897" lon="4.58752">
        <ele>671.4</ele>
        <time>2020-10-24T07:33:53Z</time>
      </trkpt>
      <trkpt lat="46.08969" lon="4.58754">
        <ele>671.2</ele>
        <time>2020-10-24T07:33:54Z</time>
      </trkpt>
      <trkpt lat="46.08968" lon="4.58757">
        <ele>671.4</ele>
        <time>2020-10-24T07:33:55Z</time>
      </trkpt>
      <trkpt lat="46.08967" lon="4.5876">
        <ele>671.2</ele>
        <time>2020-10-24T07:33:56Z</time>
      </trkpt>
      <trkpt lat="46.08965" lon="4.58763">
        <ele>670.8</ele>
        <time>2020-10-24T07:33:57Z</time>
      </trkpt>
      <trkpt lat="46.08964" lon="4.58766">
        <ele>670.8</ele>
        <time>2020-10-24T07:33:58Z</time>
      </trkpt>
      <trkpt lat="46.08964" lon="4.58769">
        <ele>670.4</ele>
        <time>2020-10-24T07:33:59Z</time>
      </trkpt>
      <trkpt lat="46.08963" lon="4.58773">
        <ele>670</ele>
        <time>2020-10-24T07:34:00Z</time>
      </trkpt>
      <trkpt lat="46.08962" lon="4.58775">
        <ele>669.6</ele>
        <time>2020-10-24T07:34:01Z</time>
      </trkpt>
      <trkpt lat="46.08961" lon="4.58778">
        <ele>669</ele>
        <time>2020-10-24T07:34:02Z</time>
      </trkpt>
      <trkpt lat="46.0896" lon="4.58781">
        <ele>668.6</ele>
        <time>2020-10-24T07:34:03Z</time>
      </trkpt>
      <trkpt lat="46.08959" lon="4.58784">
        <ele>668.6</ele>
        <time>2020-10-24T07:34:04Z</time>
      </trkpt>
      <trkpt lat="46.08958" lon="4.58786">
        <ele>668.2</ele>
        <time>2020-10-24T07:34:05Z</time>
      </trkpt>
      <trkpt lat="46.08956" lon="4.58789">
        <ele>667.6</ele>
        <time>2020-10-24T07:34:06Z</time>
      </trkpt>
      <trkpt lat="46.08955" lon="4.58791">
        <ele>667.2</ele>
        <time>2020-10-24T07:34:07Z</time>
      </trkpt>
      <trkpt lat="46.08953" lon="4.58794">
        <ele>666.6</ele>
        <time>2020-10-24T07:34:08Z</time>
      </trkpt>
      <trkpt lat="46.08952" lon="4.58796">
        <ele>666.2</ele>
        <time>2020-10-24T07:34:09Z</time>
      </trkpt>
      <trkpt lat="46.0895" lon="4.58797">
        <ele>665.8</ele>
        <time>2020-10-24T07:34:10Z</time>
      </trkpt>
      <trkpt lat="46.08948" lon="4.58799">
        <ele>665.8</ele>
        <time>2020-10-24T07:34:11Z</time>
      </trkpt>
      <trkpt lat="46.08942" lon="4.58806">
        <ele>665.2</ele>
        <time>2020-10-24T07:34:12Z</time>
      </trkpt>
      <trkpt lat="46.08941" lon="4.58808">
        <ele>664.8</ele>
        <time>2020-10-24T07:34:13Z</time>
      </trkpt>
      <trkpt lat="46.08939" lon="4.58809">
        <ele>664.8</ele>
        <time>2020-10-24T07:34:14Z</time>
      </trkpt>
      <trkpt lat="46.08934" lon="4.58815">
        <ele>664</ele>
        <time>2020-10-24T07:34:15Z</time>
      </trkpt>
      <trkpt lat="46.08933" lon="4.58817">
        <ele>663.8</ele>
        <time>2020-10-24T07:34:16Z</time>
      </trkpt>
      <trkpt lat="46.08932" lon="4.58818">
        <ele>663.6</ele>
        <time>2020-10-24T07:34:17Z</time>
      </trkpt>
      <trkpt lat="46.08931" lon="4.58819">
        <ele>663</ele>
        <time>2020-10-24T07:34:18Z</time>
      </trkpt>
      <trkpt lat="46.08924" lon="4.58825">
        <ele>662.6</ele>
        <time>2020-10-24T07:34:19Z</time>
      </trkpt>
      <trkpt lat="46.08922" lon="4.58826">
        <ele>662</ele>
        <time>2020-10-24T07:34:20Z</time>
      </trkpt>
      <trkpt lat="46.08919" lon="4.58828">
        <ele>661.4</ele>
        <time>2020-10-24T07:34:21Z</time>
      </trkpt>
      <trkpt lat="46.08917" lon="4.5883">
        <ele>661.4</ele>
        <time>2020-10-24T07:34:22Z</time>
      </trkpt>
      <trkpt lat="46.08914" lon="4.58832">
        <ele>660.6</ele>
        <time>2020-10-24T07:34:23Z</time>
      </trkpt>
      <trkpt lat="46.0891" lon="4.58833">
        <ele>660.2</ele>
        <time>2020-10-24T07:34:24Z</time>
      </trkpt>
      <trkpt lat="46.08907" lon="4.58835">
        <ele>660</ele>
        <time>2020-10-24T07:34:25Z</time>
      </trkpt>
      <trkpt lat="46.08904" lon="4.58836">
        <ele>659.6</ele>
        <time>2020-10-24T07:34:26Z</time>
      </trkpt>
      <trkpt lat="46.08902" lon="4.58836">
        <ele>658.8</ele>
        <time>2020-10-24T07:34:27Z</time>
      </trkpt>
      <trkpt lat="46.08901" lon="4.58836">
        <ele>658.8</ele>
        <time>2020-10-24T07:34:28Z</time>
      </trkpt>
      <trkpt lat="46.089" lon="4.58836">
        <ele>658.4</ele>
        <time>2020-10-24T07:34:29Z</time>
      </trkpt>
      <trkpt lat="46.08898" lon="4.58836">
        <ele>658</ele>
        <time>2020-10-24T07:34:30Z</time>
      </trkpt>
      <trkpt lat="46.0889" lon="4.58836">
        <ele>657.8</ele>
        <time>2020-10-24T07:34:31Z</time>
      </trkpt>
      <trkpt lat="46.08886" lon="4.58836">
        <ele>657.6</ele>
        <time>2020-10-24T07:34:32Z</time>
      </trkpt>
      <trkpt lat="46.08883" lon="4.58837">
        <ele>657</ele>
        <time>2020-10-24T07:34:33Z</time>
      </trkpt>
      <trkpt lat="46.08882" lon="4.58837">
        <ele>656.8</ele>
        <time>2020-10-24T07:34:34Z</time>
      </trkpt>
      <trkpt lat="46.0888" lon="4.58837">
        <ele>656.4</ele>
        <time>2020-10-24T07:34:35Z</time>
      </trkpt>
      <trkpt lat="46.08878" lon="4.58837">
        <ele>656</ele>
        <time>2020-10-24T07:34:36Z</time>
      </trkpt>
      <trkpt lat="46.08877" lon="4.58837">
        <ele>656.2</ele>
        <time>2020-10-24T07:34:37Z</time>
      </trkpt>
      <trkpt lat="46.0887" lon="4.58837">
        <ele>655.6</ele>
        <time>2020-10-24T07:34:38Z</time>
      </trkpt>
      <trkpt lat="46.08867" lon="4.58839">
        <ele>655.2</ele>
        <time>2020-10-24T07:34:39Z</time>
      </trkpt>
      <trkpt lat="46.08864" lon="4.58839">
        <ele>655.2</ele>
        <time>2020-10-24T07:34:40Z</time>
      </trkpt>
      <trkpt lat="46.08862" lon="4.5884">
        <ele>654.6</ele>
        <time>2020-10-24T07:34:41Z</time>
      </trkpt>
      <trkpt lat="46.08859" lon="4.58841">
        <ele>654.2</ele>
        <time>2020-10-24T07:34:42Z</time>
      </trkpt>
      <trkpt lat="46.08857" lon="4.58842">
        <ele>654.2</ele>
        <time>2020-10-24T07:34:43Z</time>
      </trkpt>
      <trkpt lat="46.08855" lon="4.58842">
        <ele>653.6</ele>
        <time>2020-10-24T07:34:44Z</time>
      </trkpt>
      <trkpt lat="46.08852" lon="4.58843">
        <ele>653.2</ele>
        <time>2020-10-24T07:34:45Z</time>
      </trkpt>
      <trkpt lat="46.08849" lon="4.58844">
        <ele>653.2</ele>
        <time>2020-10-24T07:34:46Z</time>
      </trkpt>
      <trkpt lat="46.08846" lon="4.58846">
        <ele>652.8</ele>
        <time>2020-10-24T07:34:47Z</time>
      </trkpt>
      <trkpt lat="46.08843" lon="4.58846">
        <ele>652</ele>
        <time>2020-10-24T07:34:48Z</time>
      </trkpt>
      <trkpt lat="46.0884" lon="4.58847">
        <ele>652</ele>
        <time>2020-10-24T07:34:49Z</time>
      </trkpt>
      <trkpt lat="46.08837" lon="4.58847">
        <ele>651.6</ele>
        <time>2020-10-24T07:34:50Z</time>
      </trkpt>
      <trkpt lat="46.08834" lon="4.58846">
        <ele>651.2</ele>
        <time>2020-10-24T07:34:51Z</time>
      </trkpt>
      <trkpt lat="46.08832" lon="4.58846">
        <ele>651</ele>
        <time>2020-10-24T07:34:52Z</time>
      </trkpt>
      <trkpt lat="46.08829" lon="4.58846">
        <ele>650.6</ele>
        <time>2020-10-24T07:34:53Z</time>
      </trkpt>
      <trkpt lat="46.08826" lon="4.58845">
        <ele>650</ele>
        <time>2020-10-24T07:34:54Z</time>
      </trkpt>
      <trkpt lat="46.08823" lon="4.58845">
        <ele>650.2</ele>
        <time>2020-10-24T07:34:55Z</time>
      </trkpt>
      <trkpt lat="46.08821" lon="4.58844">
        <ele>649.8</ele>
        <time>2020-10-24T07:34:56Z</time>
      </trkpt>
      <trkpt lat="46.08818" lon="4.58844">
        <ele>649.4</ele>
        <time>2020-10-24T07:34:57Z</time>
      </trkpt>
      <trkpt lat="46.08815" lon="4.58844">
        <ele>649.6</ele>
        <time>2020-10-24T07:34:58Z</time>
      </trkpt>
      <trkpt lat="46.08812" lon="4.58843">
        <ele>649.2</ele>
        <time>2020-10-24T07:34:59Z</time>
      </trkpt>
      <trkpt lat="46.08809" lon="4.58843">
        <ele>649</ele>
        <time>2020-10-24T07:35:00Z</time>
      </trkpt>
      <trkpt lat="46.08806" lon="4.58842">
        <ele>649.2</ele>
        <time>2020-10-24T07:35:01Z</time>
      </trkpt>
      <trkpt lat="46.08803" lon="4.58841">
        <ele>648.8</ele>
        <time>2020-10-24T07:35:02Z</time>
      </trkpt>
      <trkpt lat="46.088" lon="4.58841">
        <ele>648.8</ele>
        <time>2020-10-24T07:35:03Z</time>
      </trkpt>
      <trkpt lat="46.08797" lon="4.58841">
        <ele>648.6</ele>
        <time>2020-10-24T07:35:04Z</time>
      </trkpt>
      <trkpt lat="46.08794" lon="4.58841">
        <ele>648.2</ele>
        <time>2020-10-24T07:35:05Z</time>
      </trkpt>
      <trkpt lat="46.08791" lon="4.58841">
        <ele>648</ele>
        <time>2020-10-24T07:35:06Z</time>
      </trkpt>
      <trkpt lat="46.08787" lon="4.58842">
        <ele>648</ele>
        <time>2020-10-24T07:35:07Z</time>
      </trkpt>
      <trkpt lat="46.08784" lon="4.58842">
        <ele>647.6</ele>
        <time>2020-10-24T07:35:08Z</time>
      </trkpt>
      <trkpt lat="46.08782" lon="4.58842">
        <ele>647.8</ele>
        <time>2020-10-24T07:35:09Z</time>
      </trkpt>
      <trkpt lat="46.08779" lon="4.58841">
        <ele>647.6</ele>
        <time>2020-10-24T07:35:10Z</time>
      </trkpt>
      <trkpt lat="46.08777" lon="4.5884">
        <ele>647.4</ele>
        <time>2020-10-24T07:35:11Z</time>
      </trkpt>
      <trkpt lat="46.08774" lon="4.58839">
        <ele>647.8</ele>
        <time>2020-10-24T07:35:12Z</time>
      </trkpt>
      <trkpt lat="46.08772" lon="4.58837">
        <ele>647.8</ele>
        <time>2020-10-24T07:35:13Z</time>
      </trkpt>
      <trkpt lat="46.08769" lon="4.58837">
        <ele>647.8</ele>
        <time>2020-10-24T07:35:14Z</time>
      </trkpt>
      <trkpt lat="46.08767" lon="4.58835">
        <ele>648.2</ele>
        <time>2020-10-24T07:35:15Z</time>
      </trkpt>
      <trkpt lat="46.08764" lon="4.58835">
        <ele>648</ele>
        <time>2020-10-24T07:35:16Z</time>
      </trkpt>
      <trkpt lat="46.08761" lon="4.58833">
        <ele>647.8</ele>
        <time>2020-10-24T07:35:17Z</time>
      </trkpt>
      <trkpt lat="46.08759" lon="4.58832">
        <ele>648.2</ele>
        <time>2020-10-24T07:35:18Z</time>
      </trkpt>
      <trkpt lat="46.08756" lon="4.58831">
        <ele>648</ele>
        <time>2020-10-24T07:35:19Z</time>
      </trkpt>
      <trkpt lat="46.08753" lon="4.58831">
        <ele>648</ele>
        <time>2020-10-24T07:35:20Z</time>
      </trkpt>
      <trkpt lat="46.08751" lon="4.5883">
        <ele>648.2</ele>
        <time>2020-10-24T07:35:21Z</time>
      </trkpt>
      <trkpt lat="46.08748" lon="4.5883">
        <ele>648</ele>
        <time>2020-10-24T07:35:22Z</time>
      </trkpt>
      <trkpt lat="46.08745" lon="4.5883">
        <ele>648</ele>
        <time>2020-10-24T07:35:23Z</time>
      </trkpt>
      <trkpt lat="46.08743" lon="4.58829">
        <ele>648.2</ele>
        <time>2020-10-24T07:35:24Z</time>
      </trkpt>
      <trkpt lat="46.0874" lon="4.58829">
        <ele>648</ele>
        <time>2020-10-24T07:35:25Z</time>
      </trkpt>
      <trkpt lat="46.08738" lon="4.58828">
        <ele>647.6</ele>
        <time>2020-10-24T07:35:26Z</time>
      </trkpt>
      <trkpt lat="46.08735" lon="4.58829">
        <ele>647.6</ele>
        <time>2020-10-24T07:35:27Z</time>
      </trkpt>
      <trkpt lat="46.08732" lon="4.58828">
        <ele>647.4</ele>
        <time>2020-10-24T07:35:28Z</time>
      </trkpt>
      <trkpt lat="46.08729" lon="4.58828">
        <ele>647</ele>
        <time>2020-10-24T07:35:29Z</time>
      </trkpt>
      <trkpt lat="46.08727" lon="4.58828">
        <ele>647.2</ele>
        <time>2020-10-24T07:35:30Z</time>
      </trkpt>
      <trkpt lat="46.08724" lon="4.58827">
        <ele>646.8</ele>
        <time>2020-10-24T07:35:31Z</time>
      </trkpt>
      <trkpt lat="46.08721" lon="4.58827">
        <ele>646.6</ele>
        <time>2020-10-24T07:35:32Z</time>
      </trkpt>
      <trkpt lat="46.08719" lon="4.58826">
        <ele>646.6</ele>
        <time>2020-10-24T07:35:33Z</time>
      </trkpt>
      <trkpt lat="46.08717" lon="4.58826">
        <ele>646.4</ele>
        <time>2020-10-24T07:35:34Z</time>
      </trkpt>
      <trkpt lat="46.08714" lon="4.58826">
        <ele>646.2</ele>
        <time>2020-10-24T07:35:35Z</time>
      </trkpt>
      <trkpt lat="46.08711" lon="4.58826">
        <ele>646.2</ele>
        <time>2020-10-24T07:35:36Z</time>
      </trkpt>
      <trkpt lat="46.08709" lon="4.58825">
        <ele>645.8</ele>
        <time>2020-10-24T07:35:37Z</time>
      </trkpt>
      <trkpt lat="46.08706" lon="4.58825">
        <ele>645.4</ele>
        <time>2020-10-24T07:35:38Z</time>
      </trkpt>
      <trkpt lat="46.08704" lon="4.58825">
        <ele>644.8</ele>
        <time>2020-10-24T07:35:39Z</time>
      </trkpt>
      <trkpt lat="46.08701" lon="4.58824">
        <ele>644.6</ele>
        <time>2020-10-24T07:35:40Z</time>
      </trkpt>
      <trkpt lat="46.08699" lon="4.58824">
        <ele>644.2</ele>
        <time>2020-10-24T07:35:41Z</time>
      </trkpt>
      <trkpt lat="46.08696" lon="4.58823">
        <ele>643.8</ele>
        <time>2020-10-24T07:35:42Z</time>
      </trkpt>
      <trkpt lat="46.08694" lon="4.58824">
        <ele>643.4</ele>
        <time>2020-10-24T07:35:43Z</time>
      </trkpt>
      <trkpt lat="46.08691" lon="4.58823">
        <ele>643</ele>
        <time>2020-10-24T07:35:44Z</time>
      </trkpt>
      <trkpt lat="46.08689" lon="4.58823">
        <ele>642.8</ele>
        <time>2020-10-24T07:35:45Z</time>
      </trkpt>
      <trkpt lat="46.08686" lon="4.58822">
        <ele>642</ele>
        <time>2020-10-24T07:35:46Z</time>
      </trkpt>
      <trkpt lat="46.08684" lon="4.58822">
        <ele>641.8</ele>
        <time>2020-10-24T07:35:47Z</time>
      </trkpt>
      <trkpt lat="46.08681" lon="4.58821">
        <ele>641.6</ele>
        <time>2020-10-24T07:35:48Z</time>
      </trkpt>
      <trkpt lat="46.08678" lon="4.58821">
        <ele>640.8</ele>
        <time>2020-10-24T07:35:49Z</time>
      </trkpt>
      <trkpt lat="46.08675" lon="4.5882">
        <ele>640.6</ele>
        <time>2020-10-24T07:35:50Z</time>
      </trkpt>
      <trkpt lat="46.08672" lon="4.58819">
        <ele>640.4</ele>
        <time>2020-10-24T07:35:51Z</time>
      </trkpt>
      <trkpt lat="46.08669" lon="4.58818">
        <ele>639.6</ele>
        <time>2020-10-24T07:35:52Z</time>
      </trkpt>
      <trkpt lat="46.08666" lon="4.58817">
        <ele>639.6</ele>
        <time>2020-10-24T07:35:53Z</time>
      </trkpt>
      <trkpt lat="46.08663" lon="4.58816">
        <ele>639.4</ele>
        <time>2020-10-24T07:35:54Z</time>
      </trkpt>
      <trkpt lat="46.08661" lon="4.58814">
        <ele>638.8</ele>
        <time>2020-10-24T07:35:55Z</time>
      </trkpt>
      <trkpt lat="46.08659" lon="4.58812">
        <ele>639</ele>
        <time>2020-10-24T07:35:56Z</time>
      </trkpt>
      <trkpt lat="46.08656" lon="4.5881">
        <ele>638.6</ele>
        <time>2020-10-24T07:35:57Z</time>
      </trkpt>
      <trkpt lat="46.08654" lon="4.58807">
        <ele>638.2</ele>
        <time>2020-10-24T07:35:58Z</time>
      </trkpt>
      <trkpt lat="46.08653" lon="4.58806">
        <ele>638.2</ele>
        <time>2020-10-24T07:35:59Z</time>
      </trkpt>
      <trkpt lat="46.08651" lon="4.58803">
        <ele>637.6</ele>
        <time>2020-10-24T07:36:00Z</time>
      </trkpt>
      <trkpt lat="46.08649" lon="4.588">
        <ele>637.2</ele>
        <time>2020-10-24T07:36:01Z</time>
      </trkpt>
      <trkpt lat="46.08647" lon="4.58798">
        <ele>637.2</ele>
        <time>2020-10-24T07:36:02Z</time>
      </trkpt>
      <trkpt lat="46.08645" lon="4.58796">
        <ele>636.6</ele>
        <time>2020-10-24T07:36:03Z</time>
      </trkpt>
      <trkpt lat="46.08643" lon="4.58794">
        <ele>636.2</ele>
        <time>2020-10-24T07:36:04Z</time>
      </trkpt>
      <trkpt lat="46.0864" lon="4.58792">
        <ele>636</ele>
        <time>2020-10-24T07:36:05Z</time>
      </trkpt>
      <trkpt lat="46.08638" lon="4.5879">
        <ele>635.6</ele>
        <time>2020-10-24T07:36:06Z</time>
      </trkpt>
      <trkpt lat="46.08636" lon="4.58787">
        <ele>635.4</ele>
        <time>2020-10-24T07:36:07Z</time>
      </trkpt>
      <trkpt lat="46.08634" lon="4.58785">
        <ele>635.6</ele>
        <time>2020-10-24T07:36:08Z</time>
      </trkpt>
      <trkpt lat="46.08632" lon="4.58782">
        <ele>635</ele>
        <time>2020-10-24T07:36:09Z</time>
      </trkpt>
      <trkpt lat="46.0863" lon="4.5878">
        <ele>634.6</ele>
        <time>2020-10-24T07:36:10Z</time>
      </trkpt>
      <trkpt lat="46.08627" lon="4.58779">
        <ele>634.8</ele>
        <time>2020-10-24T07:36:11Z</time>
      </trkpt>
      <trkpt lat="46.08625" lon="4.58776">
        <ele>634.2</ele>
        <time>2020-10-24T07:36:12Z</time>
      </trkpt>
      <trkpt lat="46.08623" lon="4.58774">
        <ele>634</ele>
        <time>2020-10-24T07:36:13Z</time>
      </trkpt>
      <trkpt lat="46.0862" lon="4.58772">
        <ele>633.4</ele>
        <time>2020-10-24T07:36:14Z</time>
      </trkpt>
      <trkpt lat="46.08618" lon="4.5877">
        <ele>633</ele>
        <time>2020-10-24T07:36:15Z</time>
      </trkpt>
      <trkpt lat="46.08617" lon="4.58769">
        <ele>632.2</ele>
        <time>2020-10-24T07:36:16Z</time>
      </trkpt>
      <trkpt lat="46.08614" lon="4.58768">
        <ele>631.6</ele>
        <time>2020-10-24T07:36:17Z</time>
      </trkpt>
      <trkpt lat="46.08612" lon="4.58767">
        <ele>631.4</ele>
        <time>2020-10-24T07:36:18Z</time>
      </trkpt>
      <trkpt lat="46.0861" lon="4.58766">
        <ele>631.2</ele>
        <time>2020-10-24T07:36:19Z</time>
      </trkpt>
      <trkpt lat="46.08607" lon="4.58763">
        <ele>630.2</ele>
        <time>2020-10-24T07:36:20Z</time>
      </trkpt>
      <trkpt lat="46.08604" lon="4.58761">
        <ele>630</ele>
        <time>2020-10-24T07:36:21Z</time>
      </trkpt>
      <trkpt lat="46.08602" lon="4.58759">
        <ele>630</ele>
        <time>2020-10-24T07:36:22Z</time>
      </trkpt>
      <trkpt lat="46.08599" lon="4.58756">
        <ele>629.2</ele>
        <time>2020-10-24T07:36:23Z</time>
      </trkpt>
      <trkpt lat="46.08597" lon="4.58754">
        <ele>629</ele>
        <time>2020-10-24T07:36:24Z</time>
      </trkpt>
      <trkpt lat="46.08594" lon="4.58752">
        <ele>628.4</ele>
        <time>2020-10-24T07:36:25Z</time>
      </trkpt>
      <trkpt lat="46.08592" lon="4.5875">
        <ele>627.8</ele>
        <time>2020-10-24T07:36:26Z</time>
      </trkpt>
      <trkpt lat="46.08589" lon="4.58748">
        <ele>627.6</ele>
        <time>2020-10-24T07:36:27Z</time>
      </trkpt>
      <trkpt lat="46.08587" lon="4.58746">
        <ele>627.4</ele>
        <time>2020-10-24T07:36:28Z</time>
      </trkpt>
      <trkpt lat="46.08585" lon="4.58743">
        <ele>626.6</ele>
        <time>2020-10-24T07:36:29Z</time>
      </trkpt>
      <trkpt lat="46.08583" lon="4.58741">
        <ele>626.4</ele>
        <time>2020-10-24T07:36:30Z</time>
      </trkpt>
      <trkpt lat="46.08581" lon="4.58739">
        <ele>626.2</ele>
        <time>2020-10-24T07:36:31Z</time>
      </trkpt>
      <trkpt lat="46.08578" lon="4.58737">
        <ele>625.8</ele>
        <time>2020-10-24T07:36:32Z</time>
      </trkpt>
      <trkpt lat="46.08576" lon="4.58736">
        <ele>625.6</ele>
        <time>2020-10-24T07:36:33Z</time>
      </trkpt>
      <trkpt lat="46.08573" lon="4.58735">
        <ele>625.8</ele>
        <time>2020-10-24T07:36:34Z</time>
      </trkpt>
      <trkpt lat="46.08571" lon="4.58734">
        <ele>625.2</ele>
        <time>2020-10-24T07:36:35Z</time>
      </trkpt>
      <trkpt lat="46.08569" lon="4.58733">
        <ele>624.8</ele>
        <time>2020-10-24T07:36:36Z</time>
      </trkpt>
      <trkpt lat="46.08567" lon="4.58732">
        <ele>624.2</ele>
        <time>2020-10-24T07:36:37Z</time>
      </trkpt>
      <trkpt lat="46.08565" lon="4.58731">
        <ele>623.8</ele>
        <time>2020-10-24T07:36:38Z</time>
      </trkpt>
      <trkpt lat="46.08563" lon="4.5873">
        <ele>623.4</ele>
        <time>2020-10-24T07:36:39Z</time>
      </trkpt>
      <trkpt lat="46.08561" lon="4.58729">
        <ele>623</ele>
        <time>2020-10-24T07:36:40Z</time>
      </trkpt>
      <trkpt lat="46.08559" lon="4.58728">
        <ele>622.6</ele>
        <time>2020-10-24T07:36:41Z</time>
      </trkpt>
      <trkpt lat="46.08556" lon="4.58729">
        <ele>621.8</ele>
        <time>2020-10-24T07:36:42Z</time>
      </trkpt>
      <trkpt lat="46.08554" lon="4.58728">
        <ele>621.6</ele>
        <time>2020-10-24T07:36:43Z</time>
      </trkpt>
      <trkpt lat="46.08551" lon="4.58727">
        <ele>621</ele>
        <time>2020-10-24T07:36:44Z</time>
      </trkpt>
      <trkpt lat="46.0855" lon="4.58726">
        <ele>620.4</ele>
        <time>2020-10-24T07:36:45Z</time>
      </trkpt>
      <trkpt lat="46.08547" lon="4.58725">
        <ele>620.2</ele>
        <time>2020-10-24T07:36:46Z</time>
      </trkpt>
      <trkpt lat="46.08545" lon="4.58725">
        <ele>619.6</ele>
        <time>2020-10-24T07:36:47Z</time>
      </trkpt>
      <trkpt lat="46.08543" lon="4.58724">
        <ele>619.2</ele>
        <time>2020-10-24T07:36:48Z</time>
      </trkpt>
      <trkpt lat="46.08541" lon="4.58722">
        <ele>619</ele>
        <time>2020-10-24T07:36:49Z</time>
      </trkpt>
      <trkpt lat="46.08539" lon="4.5872">
        <ele>618.4</ele>
        <time>2020-10-24T07:36:50Z</time>
      </trkpt>
      <trkpt lat="46.08537" lon="4.58719">
        <ele>617.8</ele>
        <time>2020-10-24T07:36:51Z</time>
      </trkpt>
      <trkpt lat="46.08535" lon="4.58718">
        <ele>617</ele>
        <time>2020-10-24T07:36:52Z</time>
      </trkpt>
      <trkpt lat="46.08532" lon="4.58718">
        <ele>616.6</ele>
        <time>2020-10-24T07:36:53Z</time>
      </trkpt>
      <trkpt lat="46.0853" lon="4.58717">
        <ele>616</ele>
        <time>2020-10-24T07:36:54Z</time>
      </trkpt>
      <trkpt lat="46.08527" lon="4.58717">
        <ele>615.4</ele>
        <time>2020-10-24T07:36:55Z</time>
      </trkpt>
      <trkpt lat="46.08525" lon="4.58718">
        <ele>614.8</ele>
        <time>2020-10-24T07:36:56Z</time>
      </trkpt>
      <trkpt lat="46.08522" lon="4.58717">
        <ele>614.4</ele>
        <time>2020-10-24T07:36:57Z</time>
      </trkpt>
      <trkpt lat="46.0852" lon="4.58716">
        <ele>613.8</ele>
        <time>2020-10-24T07:36:58Z</time>
      </trkpt>
      <trkpt lat="46.08518" lon="4.58715">
        <ele>612.8</ele>
        <time>2020-10-24T07:36:59Z</time>
      </trkpt>
      <trkpt lat="46.08518" lon="4.58715">
        <ele>612.4</ele>
        <time>2020-10-24T07:37:00Z</time>
      </trkpt>
      <trkpt lat="46.08515" lon="4.58714">
        <ele>611.6</ele>
        <time>2020-10-24T07:37:01Z</time>
      </trkpt>
      <trkpt lat="46.08513" lon="4.58715">
        <ele>610.8</ele>
        <time>2020-10-24T07:37:02Z</time>
      </trkpt>
      <trkpt lat="46.08511" lon="4.58715">
        <ele>610.4</ele>
        <time>2020-10-24T07:37:03Z</time>
      </trkpt>
      <trkpt lat="46.08509" lon="4.58715">
        <ele>609.8</ele>
        <time>2020-10-24T07:37:04Z</time>
      </trkpt>
      <trkpt lat="46.08506" lon="4.58716">
        <ele>609.2</ele>
        <time>2020-10-24T07:37:05Z</time>
      </trkpt>
      <trkpt lat="46.08504" lon="4.58716">
        <ele>608.6</ele>
        <time>2020-10-24T07:37:06Z</time>
      </trkpt>
      <trkpt lat="46.08502" lon="4.58717">
        <ele>608.2</ele>
        <time>2020-10-24T07:37:07Z</time>
      </trkpt>
      <trkpt lat="46.08502" lon="4.58717">
        <ele>607.8</ele>
        <time>2020-10-24T07:37:08Z</time>
      </trkpt>
      <trkpt lat="46.085" lon="4.58718">
        <ele>607.2</ele>
        <time>2020-10-24T07:37:09Z</time>
      </trkpt>
      <trkpt lat="46.085" lon="4.58718">
        <ele>606.4</ele>
        <time>2020-10-24T07:37:10Z</time>
      </trkpt>
      <trkpt lat="46.08498" lon="4.58719">
        <ele>606</ele>
        <time>2020-10-24T07:37:11Z</time>
      </trkpt>
      <trkpt lat="46.08498" lon="4.58719">
        <ele>605.2</ele>
        <time>2020-10-24T07:37:12Z</time>
      </trkpt>
      <trkpt lat="46.08495" lon="4.58721">
        <ele>604.6</ele>
        <time>2020-10-24T07:37:13Z</time>
      </trkpt>
      <trkpt lat="46.08495" lon="4.58721">
        <ele>604</ele>
        <time>2020-10-24T07:37:14Z</time>
      </trkpt>
      <trkpt lat="46.08491" lon="4.58722">
        <ele>603.4</ele>
        <time>2020-10-24T07:37:15Z</time>
      </trkpt>
      <trkpt lat="46.08489" lon="4.58723">
        <ele>603</ele>
        <time>2020-10-24T07:37:16Z</time>
      </trkpt>
      <trkpt lat="46.08486" lon="4.58724">
        <ele>602.4</ele>
        <time>2020-10-24T07:37:17Z</time>
      </trkpt>
      <trkpt lat="46.08485" lon="4.58725">
        <ele>602</ele>
        <time>2020-10-24T07:37:18Z</time>
      </trkpt>
      <trkpt lat="46.08485" lon="4.58725">
        <ele>601.6</ele>
        <time>2020-10-24T07:37:19Z</time>
      </trkpt>
      <trkpt lat="46.08481" lon="4.58726">
        <ele>601</ele>
        <time>2020-10-24T07:37:20Z</time>
      </trkpt>
      <trkpt lat="46.08481" lon="4.58726">
        <ele>601</ele>
        <time>2020-10-24T07:37:21Z</time>
      </trkpt>
      <trkpt lat="46.08478" lon="4.58727">
        <ele>600.2</ele>
        <time>2020-10-24T07:37:22Z</time>
      </trkpt>
      <trkpt lat="46.08478" lon="4.58727">
        <ele>600</ele>
        <time>2020-10-24T07:37:23Z</time>
      </trkpt>
      <trkpt lat="46.08475" lon="4.58728">
        <ele>599</ele>
        <time>2020-10-24T07:37:24Z</time>
      </trkpt>
      <trkpt lat="46.08473" lon="4.58729">
        <ele>598.2</ele>
        <time>2020-10-24T07:37:25Z</time>
      </trkpt>
      <trkpt lat="46.08472" lon="4.5873">
        <ele>597.8</ele>
        <time>2020-10-24T07:37:26Z</time>
      </trkpt>
      <trkpt lat="46.08469" lon="4.58732">
        <ele>597.2</ele>
        <time>2020-10-24T07:37:27Z</time>
      </trkpt>
      <trkpt lat="46.08467" lon="4.58733">
        <ele>597</ele>
        <time>2020-10-24T07:37:28Z</time>
      </trkpt>
      <trkpt lat="46.08465" lon="4.58734">
        <ele>596.4</ele>
        <time>2020-10-24T07:37:29Z</time>
      </trkpt>
      <trkpt lat="46.08462" lon="4.58735">
        <ele>595.8</ele>
        <time>2020-10-24T07:37:30Z</time>
      </trkpt>
      <trkpt lat="46.08461" lon="4.58737">
        <ele>595.8</ele>
        <time>2020-10-24T07:37:31Z</time>
      </trkpt>
      <trkpt lat="46.08459" lon="4.58738">
        <ele>595.2</ele>
        <time>2020-10-24T07:37:32Z</time>
      </trkpt>
      <trkpt lat="46.08457" lon="4.58739">
        <ele>594.8</ele>
        <time>2020-10-24T07:37:33Z</time>
      </trkpt>
      <trkpt lat="46.08455" lon="4.58741">
        <ele>594.6</ele>
        <time>2020-10-24T07:37:34Z</time>
      </trkpt>
      <trkpt lat="46.08453" lon="4.58743">
        <ele>593.8</ele>
        <time>2020-10-24T07:37:35Z</time>
      </trkpt>
      <trkpt lat="46.08451" lon="4.58744">
        <ele>593.6</ele>
        <time>2020-10-24T07:37:36Z</time>
      </trkpt>
      <trkpt lat="46.08449" lon="4.58746">
        <ele>593.2</ele>
        <time>2020-10-24T07:37:37Z</time>
      </trkpt>
      <trkpt lat="46.08448" lon="4.58747">
        <ele>592.4</ele>
        <time>2020-10-24T07:37:38Z</time>
      </trkpt>
      <trkpt lat="46.08447" lon="4.58749">
        <ele>592.4</ele>
        <time>2020-10-24T07:37:39Z</time>
      </trkpt>
      <trkpt lat="46.08446" lon="4.5875">
        <ele>591.8</ele>
        <time>2020-10-24T07:37:40Z</time>
      </trkpt>
      <trkpt lat="46.08444" lon="4.58752">
        <ele>591.2</ele>
        <time>2020-10-24T07:37:41Z</time>
      </trkpt>
      <trkpt lat="46.08443" lon="4.58753">
        <ele>591</ele>
        <time>2020-10-24T07:37:42Z</time>
      </trkpt>
      <trkpt lat="46.08438" lon="4.5876">
        <ele>590.4</ele>
        <time>2020-10-24T07:37:43Z</time>
      </trkpt>
      <trkpt lat="46.08436" lon="4.58762">
        <ele>590.4</ele>
        <time>2020-10-24T07:37:44Z</time>
      </trkpt>
      <trkpt lat="46.08433" lon="4.58763">
        <ele>590.2</ele>
        <time>2020-10-24T07:37:45Z</time>
      </trkpt>
      <trkpt lat="46.08431" lon="4.58765">
        <ele>589.8</ele>
        <time>2020-10-24T07:37:46Z</time>
      </trkpt>
      <trkpt lat="46.08429" lon="4.58766">
        <ele>589.8</ele>
        <time>2020-10-24T07:37:47Z</time>
      </trkpt>
      <trkpt lat="46.08427" lon="4.58767">
        <ele>589.2</ele>
        <time>2020-10-24T07:37:48Z</time>
      </trkpt>
      <trkpt lat="46.08425" lon="4.58767">
        <ele>588.8</ele>
        <time>2020-10-24T07:37:49Z</time>
      </trkpt>
      <trkpt lat="46.08423" lon="4.58766">
        <ele>588.4</ele>
        <time>2020-10-24T07:37:50Z</time>
      </trkpt>
      <trkpt lat="46.08421" lon="4.58767">
        <ele>588</ele>
        <time>2020-10-24T07:37:51Z</time>
      </trkpt>
      <trkpt lat="46.08418" lon="4.58768">
        <ele>587.8</ele>
        <time>2020-10-24T07:37:52Z</time>
      </trkpt>
      <trkpt lat="46.08415" lon="4.58769">
        <ele>587.6</ele>
        <time>2020-10-24T07:37:53Z</time>
      </trkpt>
      <trkpt lat="46.08413" lon="4.58768">
        <ele>587</ele>
        <time>2020-10-24T07:37:54Z</time>
      </trkpt>
      <trkpt lat="46.08411" lon="4.58768">
        <ele>586.8</ele>
        <time>2020-10-24T07:37:55Z</time>
      </trkpt>
      <trkpt lat="46.08408" lon="4.58769">
        <ele>586.8</ele>
        <time>2020-10-24T07:37:56Z</time>
      </trkpt>
      <trkpt lat="46.08407" lon="4.5877">
        <ele>586</ele>
        <time>2020-10-24T07:37:57Z</time>
      </trkpt>
      <trkpt lat="46.08404" lon="4.58771">
        <ele>586</ele>
        <time>2020-10-24T07:37:58Z</time>
      </trkpt>
      <trkpt lat="46.08402" lon="4.58772">
        <ele>585.8</ele>
        <time>2020-10-24T07:37:59Z</time>
      </trkpt>
      <trkpt lat="46.084" lon="4.58772">
        <ele>585.2</ele>
        <time>2020-10-24T07:38:00Z</time>
      </trkpt>
      <trkpt lat="46.08398" lon="4.58773">
        <ele>585.4</ele>
        <time>2020-10-24T07:38:01Z</time>
      </trkpt>
      <trkpt lat="46.08396" lon="4.58773">
        <ele>585.2</ele>
        <time>2020-10-24T07:38:02Z</time>
      </trkpt>
      <trkpt lat="46.08394" lon="4.58773">
        <ele>584.8</ele>
        <time>2020-10-24T07:38:03Z</time>
      </trkpt>
      <trkpt lat="46.08391" lon="4.58774">
        <ele>585</ele>
        <time>2020-10-24T07:38:04Z</time>
      </trkpt>
      <trkpt lat="46.08389" lon="4.58774">
        <ele>584.6</ele>
        <time>2020-10-24T07:38:05Z</time>
      </trkpt>
      <trkpt lat="46.08386" lon="4.58775">
        <ele>584.2</ele>
        <time>2020-10-24T07:38:06Z</time>
      </trkpt>
      <trkpt lat="46.08384" lon="4.58775">
        <ele>584.4</ele>
        <time>2020-10-24T07:38:07Z</time>
      </trkpt>
      <trkpt lat="46.0838" lon="4.58776">
        <ele>584.2</ele>
        <time>2020-10-24T07:38:08Z</time>
      </trkpt>
      <trkpt lat="46.08377" lon="4.58776">
        <ele>584.2</ele>
        <time>2020-10-24T07:38:09Z</time>
      </trkpt>
      <trkpt lat="46.08374" lon="4.58777">
        <ele>584</ele>
        <time>2020-10-24T07:38:10Z</time>
      </trkpt>
      <trkpt lat="46.08372" lon="4.58777">
        <ele>583.8</ele>
        <time>2020-10-24T07:38:11Z</time>
      </trkpt>
      <trkpt lat="46.0837" lon="4.58777">
        <ele>583.8</ele>
        <time>2020-10-24T07:38:12Z</time>
      </trkpt>
      <trkpt lat="46.08368" lon="4.58777">
        <ele>583.6</ele>
        <time>2020-10-24T07:38:13Z</time>
      </trkpt>
      <trkpt lat="46.08366" lon="4.58777">
        <ele>583.6</ele>
        <time>2020-10-24T07:38:14Z</time>
      </trkpt>
      <trkpt lat="46.08364" lon="4.58777">
        <ele>583.8</ele>
        <time>2020-10-24T07:38:15Z</time>
      </trkpt>
      <trkpt lat="46.08362" lon="4.58776">
        <ele>583.8</ele>
        <time>2020-10-24T07:38:16Z</time>
      </trkpt>
      <trkpt lat="46.0836" lon="4.58776">
        <ele>584</ele>
        <time>2020-10-24T07:38:17Z</time>
      </trkpt>
      <trkpt lat="46.08358" lon="4.58775">
        <ele>584</ele>
        <time>2020-10-24T07:38:18Z</time>
      </trkpt>
      <trkpt lat="46.08358" lon="4.58775">
        <ele>584.2</ele>
        <time>2020-10-24T07:38:19Z</time>
      </trkpt>
      <trkpt lat="46.08355" lon="4.58774">
        <ele>584.4</ele>
        <time>2020-10-24T07:38:20Z</time>
      </trkpt>
      <trkpt lat="46.08355" lon="4.58774">
        <ele>584.4</ele>
        <time>2020-10-24T07:38:21Z</time>
      </trkpt>
      <trkpt lat="46.08352" lon="4.58775">
        <ele>584.2</ele>
        <time>2020-10-24T07:38:22Z</time>
      </trkpt>
      <trkpt lat="46.08352" lon="4.58775">
        <ele>584.2</ele>
        <time>2020-10-24T07:38:23Z</time>
      </trkpt>
      <trkpt lat="46.08349" lon="4.58775">
        <ele>584</ele>
        <time>2020-10-24T07:38:24Z</time>
      </trkpt>
      <trkpt lat="46.08349" lon="4.58775">
        <ele>584.2</ele>
        <time>2020-10-24T07:38:25Z</time>
      </trkpt>
      <trkpt lat="46.08345" lon="4.58775">
        <ele>584.2</ele>
        <time>2020-10-24T07:38:26Z</time>
      </trkpt>
      <trkpt lat="46.08345" lon="4.58775">
        <ele>584.2</ele>
        <time>2020-10-24T07:38:27Z</time>
      </trkpt>
      <trkpt lat="46.08343" lon="4.58776">
        <ele>584.4</ele>
        <time>2020-10-24T07:38:28Z</time>
      </trkpt>
      <trkpt lat="46.08343" lon="4.58776">
        <ele>584.6</ele>
        <time>2020-10-24T07:38:29Z</time>
      </trkpt>
      <trkpt lat="46.08341" lon="4.58778">
        <ele>584.6</ele>
        <time>2020-10-24T07:38:30Z</time>
      </trkpt>
      <trkpt lat="46.08341" lon="4.58778">
        <ele>584.6</ele>
        <time>2020-10-24T07:38:31Z</time>
      </trkpt>
      <trkpt lat="46.08338" lon="4.58779">
        <ele>584.6</ele>
        <time>2020-10-24T07:38:32Z</time>
      </trkpt>
      <trkpt lat="46.08338" lon="4.58779">
        <ele>584.8</ele>
        <time>2020-10-24T07:38:33Z</time>
      </trkpt>
      <trkpt lat="46.08337" lon="4.58782">
        <ele>585</ele>
        <time>2020-10-24T07:38:34Z</time>
      </trkpt>
      <trkpt lat="46.08337" lon="4.58783">
        <ele>585</ele>
        <time>2020-10-24T07:38:35Z</time>
      </trkpt>
      <trkpt lat="46.08336" lon="4.58784">
        <ele>585.2</ele>
        <time>2020-10-24T07:38:36Z</time>
      </trkpt>
      <trkpt lat="46.08336" lon="4.58785">
        <ele>585.4</ele>
        <time>2020-10-24T07:38:37Z</time>
      </trkpt>
      <trkpt lat="46.08336" lon="4.58787">
        <ele>585.4</ele>
        <time>2020-10-24T07:38:38Z</time>
      </trkpt>
      <trkpt lat="46.08336" lon="4.58788">
        <ele>585.4</ele>
        <time>2020-10-24T07:38:39Z</time>
      </trkpt>
      <trkpt lat="46.08336" lon="4.58789">
        <ele>585.4</ele>
        <time>2020-10-24T07:38:40Z</time>
      </trkpt>
      <trkpt lat="46.08336" lon="4.5879">
        <ele>585.4</ele>
        <time>2020-10-24T07:38:41Z</time>
      </trkpt>
      <trkpt lat="46.08335" lon="4.58791">
        <ele>585.4</ele>
        <time>2020-10-24T07:38:42Z</time>
      </trkpt>
      <trkpt lat="46.08335" lon="4.58792">
        <ele>585.6</ele>
        <time>2020-10-24T07:38:43Z</time>
      </trkpt>
      <trkpt lat="46.08335" lon="4.58794">
        <ele>585.8</ele>
        <time>2020-10-24T07:38:44Z</time>
      </trkpt>
      <trkpt lat="46.08335" lon="4.58795">
        <ele>586</ele>
        <time>2020-10-24T07:38:45Z</time>
      </trkpt>
      <trkpt lat="46.08335" lon="4.58796">
        <ele>586.2</ele>
        <time>2020-10-24T07:38:46Z</time>
      </trkpt>
      <trkpt lat="46.08335" lon="4.58797">
        <ele>586.2</ele>
        <time>2020-10-24T07:38:47Z</time>
      </trkpt>
      <trkpt lat="46.08336" lon="4.58799">
        <ele>586.2</ele>
        <time>2020-10-24T07:38:48Z</time>
      </trkpt>
      <trkpt lat="46.08336" lon="4.588">
        <ele>586.2</ele>
        <time>2020-10-24T07:38:49Z</time>
      </trkpt>
      <trkpt lat="46.08336" lon="4.58801">
        <ele>586.4</ele>
        <time>2020-10-24T07:38:50Z</time>
      </trkpt>
      <trkpt lat="46.08336" lon="4.58803">
        <ele>586.4</ele>
        <time>2020-10-24T07:38:51Z</time>
      </trkpt>
      <trkpt lat="46.08336" lon="4.58804">
        <ele>586.2</ele>
        <time>2020-10-24T07:38:52Z</time>
      </trkpt>
      <trkpt lat="46.08337" lon="4.58805">
        <ele>586.4</ele>
        <time>2020-10-24T07:38:53Z</time>
      </trkpt>
      <trkpt lat="46.08337" lon="4.58806">
        <ele>586.4</ele>
        <time>2020-10-24T07:38:54Z</time>
      </trkpt>
      <trkpt lat="46.08337" lon="4.58808">
        <ele>586.2</ele>
        <time>2020-10-24T07:38:55Z</time>
      </trkpt>
      <trkpt lat="46.08337" lon="4.5881">
        <ele>586.2</ele>
        <time>2020-10-24T07:38:56Z</time>
      </trkpt>
      <trkpt lat="46.08337" lon="4.58812">
        <ele>586.2</ele>
        <time>2020-10-24T07:38:57Z</time>
      </trkpt>
      <trkpt lat="46.08336" lon="4.58814">
        <ele>586.2</ele>
        <time>2020-10-24T07:38:58Z</time>
      </trkpt>
      <trkpt lat="46.08336" lon="4.58815">
        <ele>586</ele>
        <time>2020-10-24T07:38:59Z</time>
      </trkpt>
      <trkpt lat="46.08336" lon="4.58817">
        <ele>586.2</ele>
        <time>2020-10-24T07:39:00Z</time>
      </trkpt>
      <trkpt lat="46.08336" lon="4.58819">
        <ele>586.2</ele>
        <time>2020-10-24T07:39:01Z</time>
      </trkpt>
      <trkpt lat="46.08335" lon="4.58821">
        <ele>586.2</ele>
        <time>2020-10-24T07:39:02Z</time>
      </trkpt>
      <trkpt lat="46.08336" lon="4.58823">
        <ele>586.2</ele>
        <time>2020-10-24T07:39:03Z</time>
      </trkpt>
      <trkpt lat="46.08336" lon="4.58825">
        <ele>586.4</ele>
        <time>2020-10-24T07:39:04Z</time>
      </trkpt>
      <trkpt lat="46.08336" lon="4.58827">
        <ele>586.4</ele>
        <time>2020-10-24T07:39:05Z</time>
      </trkpt>
      <trkpt lat="46.08336" lon="4.58829">
        <ele>586.4</ele>
        <time>2020-10-24T07:39:06Z</time>
      </trkpt>
      <trkpt lat="46.08336" lon="4.58831">
        <ele>586.6</ele>
        <time>2020-10-24T07:39:07Z</time>
      </trkpt>
      <trkpt lat="46.08336" lon="4.58833">
        <ele>586.4</ele>
        <time>2020-10-24T07:39:08Z</time>
      </trkpt>
      <trkpt lat="46.08336" lon="4.58835">
        <ele>586.6</ele>
        <time>2020-10-24T07:39:09Z</time>
      </trkpt>
      <trkpt lat="46.08334" lon="4.58838">
        <ele>586.8</ele>
        <time>2020-10-24T07:39:10Z</time>
      </trkpt>
      <trkpt lat="46.08333" lon="4.58841">
        <ele>587.2</ele>
        <time>2020-10-24T07:39:11Z</time>
      </trkpt>
      <trkpt lat="46.08333" lon="4.58844">
        <ele>587.6</ele>
        <time>2020-10-24T07:39:12Z</time>
      </trkpt>
      <trkpt lat="46.08332" lon="4.58846">
        <ele>587.8</ele>
        <time>2020-10-24T07:39:13Z</time>
      </trkpt>
      <trkpt lat="46.08331" lon="4.58849">
        <ele>588.2</ele>
        <time>2020-10-24T07:39:14Z</time>
      </trkpt>
      <trkpt lat="46.08331" lon="4.58849">
        <ele>588.2</ele>
        <time>2020-10-24T07:39:15Z</time>
      </trkpt>
      <trkpt lat="46.0833" lon="4.58853">
        <ele>588</ele>
        <time>2020-10-24T07:39:16Z</time>
      </trkpt>
      <trkpt lat="46.0833" lon="4.58855">
        <ele>587.6</ele>
        <time>2020-10-24T07:39:17Z</time>
      </trkpt>
      <trkpt lat="46.0833" lon="4.58857">
        <ele>587.6</ele>
        <time>2020-10-24T07:39:18Z</time>
      </trkpt>
      <trkpt lat="46.0833" lon="4.58859">
        <ele>587.6</ele>
        <time>2020-10-24T07:39:19Z</time>
      </trkpt>
      <trkpt lat="46.08329" lon="4.58861">
        <ele>587.4</ele>
        <time>2020-10-24T07:39:20Z</time>
      </trkpt>
      <trkpt lat="46.08329" lon="4.58863">
        <ele>587.6</ele>
        <time>2020-10-24T07:39:21Z</time>
      </trkpt>
      <trkpt lat="46.08329" lon="4.58865">
        <ele>587.6</ele>
        <time>2020-10-24T07:39:22Z</time>
      </trkpt>
      <trkpt lat="46.08329" lon="4.58867">
        <ele>587.6</ele>
        <time>2020-10-24T07:39:23Z</time>
      </trkpt>
      <trkpt lat="46.08329" lon="4.58869">
        <ele>587.6</ele>
        <time>2020-10-24T07:39:24Z</time>
      </trkpt>
      <trkpt lat="46.08329" lon="4.58871">
        <ele>587.6</ele>
        <time>2020-10-24T07:39:25Z</time>
      </trkpt>
      <trkpt lat="46.0833" lon="4.58873">
        <ele>587.4</ele>
        <time>2020-10-24T07:39:26Z</time>
      </trkpt>
      <trkpt lat="46.0833" lon="4.58875">
        <ele>587.2</ele>
        <time>2020-10-24T07:39:27Z</time>
      </trkpt>
      <trkpt lat="46.0833" lon="4.58876">
        <ele>587.2</ele>
        <time>2020-10-24T07:39:28Z</time>
      </trkpt>
      <trkpt lat="46.0833" lon="4.58878">
        <ele>587.2</ele>
        <time>2020-10-24T07:39:29Z</time>
      </trkpt>
      <trkpt lat="46.08331" lon="4.5888">
        <ele>587.2</ele>
        <time>2020-10-24T07:39:30Z</time>
      </trkpt>
      <trkpt lat="46.0833" lon="4.58883">
        <ele>587.4</ele>
        <time>2020-10-24T07:39:31Z</time>
      </trkpt>
      <trkpt lat="46.0833" lon="4.58885">
        <ele>587.6</ele>
        <time>2020-10-24T07:39:32Z</time>
      </trkpt>
      <trkpt lat="46.0833" lon="4.58887">
        <ele>587.8</ele>
        <time>2020-10-24T07:39:33Z</time>
      </trkpt>
      <trkpt lat="46.0833" lon="4.58889">
        <ele>587.8</ele>
        <time>2020-10-24T07:39:34Z</time>
      </trkpt>
      <trkpt lat="46.0833" lon="4.58891">
        <ele>588.2</ele>
        <time>2020-10-24T07:39:35Z</time>
      </trkpt>
      <trkpt lat="46.08329" lon="4.58893">
        <ele>588.4</ele>
        <time>2020-10-24T07:39:36Z</time>
      </trkpt>
      <trkpt lat="46.08329" lon="4.58896">
        <ele>588.4</ele>
        <time>2020-10-24T07:39:37Z</time>
      </trkpt>
      <trkpt lat="46.08328" lon="4.58899">
        <ele>588.6</ele>
        <time>2020-10-24T07:39:38Z</time>
      </trkpt>
      <trkpt lat="46.08328" lon="4.58902">
        <ele>588.6</ele>
        <time>2020-10-24T07:39:39Z</time>
      </trkpt>
      <trkpt lat="46.08327" lon="4.58905">
        <ele>588.6</ele>
        <time>2020-10-24T07:39:40Z</time>
      </trkpt>
      <trkpt lat="46.08327" lon="4.58907">
        <ele>588.6</ele>
        <time>2020-10-24T07:39:41Z</time>
      </trkpt>
      <trkpt lat="46.08326" lon="4.58909">
        <ele>588.6</ele>
        <time>2020-10-24T07:39:42Z</time>
      </trkpt>
      <trkpt lat="46.08325" lon="4.58911">
        <ele>588.6</ele>
        <time>2020-10-24T07:39:43Z</time>
      </trkpt>
      <trkpt lat="46.08325" lon="4.58913">
        <ele>588.6</ele>
        <time>2020-10-24T07:39:44Z</time>
      </trkpt>
      <trkpt lat="46.08324" lon="4.58915">
        <ele>588.6</ele>
        <time>2020-10-24T07:39:45Z</time>
      </trkpt>
      <trkpt lat="46.08323" lon="4.58917">
        <ele>588.8</ele>
        <time>2020-10-24T07:39:46Z</time>
      </trkpt>
      <trkpt lat="46.08323" lon="4.58919">
        <ele>589.2</ele>
        <time>2020-10-24T07:39:47Z</time>
      </trkpt>
      <trkpt lat="46.08322" lon="4.58921">
        <ele>589.6</ele>
        <time>2020-10-24T07:39:48Z</time>
      </trkpt>
      <trkpt lat="46.08322" lon="4.58924">
        <ele>589.8</ele>
        <time>2020-10-24T07:39:49Z</time>
      </trkpt>
      <trkpt lat="46.08322" lon="4.58926">
        <ele>589.8</ele>
        <time>2020-10-24T07:39:50Z</time>
      </trkpt>
      <trkpt lat="46.08321" lon="4.58928">
        <ele>589.6</ele>
        <time>2020-10-24T07:39:51Z</time>
      </trkpt>
      <trkpt lat="46.08321" lon="4.5893">
        <ele>589.6</ele>
        <time>2020-10-24T07:39:52Z</time>
      </trkpt>
      <trkpt lat="46.08321" lon="4.58933">
        <ele>589.4</ele>
        <time>2020-10-24T07:39:53Z</time>
      </trkpt>
      <trkpt lat="46.0832" lon="4.58935">
        <ele>589.2</ele>
        <time>2020-10-24T07:39:54Z</time>
      </trkpt>
      <trkpt lat="46.0832" lon="4.58937">
        <ele>589.2</ele>
        <time>2020-10-24T07:39:55Z</time>
      </trkpt>
      <trkpt lat="46.0832" lon="4.58939">
        <ele>589.2</ele>
        <time>2020-10-24T07:39:56Z</time>
      </trkpt>
      <trkpt lat="46.08319" lon="4.58941">
        <ele>589</ele>
        <time>2020-10-24T07:39:57Z</time>
      </trkpt>
      <trkpt lat="46.08319" lon="4.58943">
        <ele>589</ele>
        <time>2020-10-24T07:39:58Z</time>
      </trkpt>
      <trkpt lat="46.08318" lon="4.58945">
        <ele>589.2</ele>
        <time>2020-10-24T07:39:59Z</time>
      </trkpt>
      <trkpt lat="46.08318" lon="4.58948">
        <ele>589.4</ele>
        <time>2020-10-24T07:40:01Z</time>
      </trkpt>
      <trkpt lat="46.08318" lon="4.5895">
        <ele>589.6</ele>
        <time>2020-10-24T07:40:02Z</time>
      </trkpt>
      <trkpt lat="46.08318" lon="4.58952">
        <ele>589.6</ele>
        <time>2020-10-24T07:40:03Z</time>
      </trkpt>
      <trkpt lat="46.08317" lon="4.58954">
        <ele>589.8</ele>
        <time>2020-10-24T07:40:04Z</time>
      </trkpt>
      <trkpt lat="46.08317" lon="4.58956">
        <ele>589.8</ele>
        <time>2020-10-24T07:40:05Z</time>
      </trkpt>
      <trkpt lat="46.08317" lon="4.58958">
        <ele>589.8</ele>
        <time>2020-10-24T07:40:06Z</time>
      </trkpt>
      <trkpt lat="46.08317" lon="4.5896">
        <ele>589.8</ele>
        <time>2020-10-24T07:40:07Z</time>
      </trkpt>
      <trkpt lat="46.08316" lon="4.58962">
        <ele>589.8</ele>
        <time>2020-10-24T07:40:08Z</time>
      </trkpt>
      <trkpt lat="46.08316" lon="4.58964">
        <ele>590.4</ele>
        <time>2020-10-24T07:40:09Z</time>
      </trkpt>
      <trkpt lat="46.08316" lon="4.58966">
        <ele>590.4</ele>
        <time>2020-10-24T07:40:10Z</time>
      </trkpt>
      <trkpt lat="46.08316" lon="4.58968">
        <ele>590.6</ele>
        <time>2020-10-24T07:40:11Z</time>
      </trkpt>
      <trkpt lat="46.08316" lon="4.58971">
        <ele>590.6</ele>
        <time>2020-10-24T07:40:12Z</time>
      </trkpt>
      <trkpt lat="46.08315" lon="4.58973">
        <ele>591</ele>
        <time>2020-10-24T07:40:13Z</time>
      </trkpt>
      <trkpt lat="46.08315" lon="4.58975">
        <ele>591.2</ele>
        <time>2020-10-24T07:40:14Z</time>
      </trkpt>
      <trkpt lat="46.08315" lon="4.58977">
        <ele>591.4</ele>
        <time>2020-10-24T07:40:15Z</time>
      </trkpt>
      <trkpt lat="46.08315" lon="4.58979">
        <ele>591.6</ele>
        <time>2020-10-24T07:40:16Z</time>
      </trkpt>
      <trkpt lat="46.08315" lon="4.58979">
        <ele>592.2</ele>
        <time>2020-10-24T07:40:17Z</time>
      </trkpt>
      <trkpt lat="46.08314" lon="4.58983">
        <ele>592</ele>
        <time>2020-10-24T07:40:18Z</time>
      </trkpt>
      <trkpt lat="46.08314" lon="4.58983">
        <ele>592.2</ele>
        <time>2020-10-24T07:40:19Z</time>
      </trkpt>
      <trkpt lat="46.08314" lon="4.58988">
        <ele>592.4</ele>
        <time>2020-10-24T07:40:20Z</time>
      </trkpt>
      <trkpt lat="46.08314" lon="4.58988">
        <ele>592.6</ele>
        <time>2020-10-24T07:40:21Z</time>
      </trkpt>
      <trkpt lat="46.08314" lon="4.58992">
        <ele>592.8</ele>
        <time>2020-10-24T07:40:22Z</time>
      </trkpt>
      <trkpt lat="46.08314" lon="4.58992">
        <ele>592.6</ele>
        <time>2020-10-24T07:40:23Z</time>
      </trkpt>
      <trkpt lat="46.08313" lon="4.58996">
        <ele>592.8</ele>
        <time>2020-10-24T07:40:24Z</time>
      </trkpt>
      <trkpt lat="46.08313" lon="4.58996">
        <ele>593.2</ele>
        <time>2020-10-24T07:40:25Z</time>
      </trkpt>
      <trkpt lat="46.08314" lon="4.58999">
        <ele>593.6</ele>
        <time>2020-10-24T07:40:26Z</time>
      </trkpt>
      <trkpt lat="46.08314" lon="4.58999">
        <ele>593.4</ele>
        <time>2020-10-24T07:40:27Z</time>
      </trkpt>
      <trkpt lat="46.08314" lon="4.59003">
        <ele>593.4</ele>
        <time>2020-10-24T07:40:28Z</time>
      </trkpt>
      <trkpt lat="46.08314" lon="4.59003">
        <ele>593.4</ele>
        <time>2020-10-24T07:40:29Z</time>
      </trkpt>
      <trkpt lat="46.08314" lon="4.59006">
        <ele>593.4</ele>
        <time>2020-10-24T07:40:30Z</time>
      </trkpt>
      <trkpt lat="46.08315" lon="4.59008">
        <ele>593.6</ele>
        <time>2020-10-24T07:40:31Z</time>
      </trkpt>
      <trkpt lat="46.08315" lon="4.5901">
        <ele>593.8</ele>
        <time>2020-10-24T07:40:32Z</time>
      </trkpt>
      <trkpt lat="46.08315" lon="4.59012">
        <ele>594</ele>
        <time>2020-10-24T07:40:33Z</time>
      </trkpt>
      <trkpt lat="46.08316" lon="4.59014">
        <ele>594</ele>
        <time>2020-10-24T07:40:34Z</time>
      </trkpt>
      <trkpt lat="46.08316" lon="4.59016">
        <ele>594</ele>
        <time>2020-10-24T07:40:35Z</time>
      </trkpt>
      <trkpt lat="46.08316" lon="4.59017">
        <ele>594</ele>
        <time>2020-10-24T07:40:36Z</time>
      </trkpt>
      <trkpt lat="46.08316" lon="4.59019">
        <ele>594.4</ele>
        <time>2020-10-24T07:40:37Z</time>
      </trkpt>
      <trkpt lat="46.08316" lon="4.59021">
        <ele>594.4</ele>
        <time>2020-10-24T07:40:38Z</time>
      </trkpt>
      <trkpt lat="46.08316" lon="4.59023">
        <ele>594.4</ele>
        <time>2020-10-24T07:40:39Z</time>
      </trkpt>
      <trkpt lat="46.08315" lon="4.59025">
        <ele>594.4</ele>
        <time>2020-10-24T07:40:40Z</time>
      </trkpt>
      <trkpt lat="46.08315" lon="4.59027">
        <ele>594.8</ele>
        <time>2020-10-24T07:40:41Z</time>
      </trkpt>
      <trkpt lat="46.08315" lon="4.59029">
        <ele>594.8</ele>
        <time>2020-10-24T07:40:42Z</time>
      </trkpt>
      <trkpt lat="46.08314" lon="4.59032">
        <ele>595.2</ele>
        <time>2020-10-24T07:40:43Z</time>
      </trkpt>
      <trkpt lat="46.08314" lon="4.59034">
        <ele>595</ele>
        <time>2020-10-24T07:40:44Z</time>
      </trkpt>
      <trkpt lat="46.08314" lon="4.59036">
        <ele>595</ele>
        <time>2020-10-24T07:40:45Z</time>
      </trkpt>
      <trkpt lat="46.08314" lon="4.59036">
        <ele>595</ele>
        <time>2020-10-24T07:40:46Z</time>
      </trkpt>
      <trkpt lat="46.08313" lon="4.59041">
        <ele>595</ele>
        <time>2020-10-24T07:40:47Z</time>
      </trkpt>
      <trkpt lat="46.08313" lon="4.59041">
        <ele>595.2</ele>
        <time>2020-10-24T07:40:48Z</time>
      </trkpt>
      <trkpt lat="46.08313" lon="4.59045">
        <ele>595.2</ele>
        <time>2020-10-24T07:40:49Z</time>
      </trkpt>
      <trkpt lat="46.08313" lon="4.59048">
        <ele>595.4</ele>
        <time>2020-10-24T07:40:50Z</time>
      </trkpt>
      <trkpt lat="46.08313" lon="4.59048">
        <ele>595.4</ele>
        <time>2020-10-24T07:40:51Z</time>
      </trkpt>
      <trkpt lat="46.08312" lon="4.59052">
        <ele>595.6</ele>
        <time>2020-10-24T07:40:52Z</time>
      </trkpt>
      <trkpt lat="46.0831" lon="4.59055">
        <ele>595.6</ele>
        <time>2020-10-24T07:40:53Z</time>
      </trkpt>
      <trkpt lat="46.08309" lon="4.59058">
        <ele>596</ele>
        <time>2020-10-24T07:40:54Z</time>
      </trkpt>
      <trkpt lat="46.08307" lon="4.59061">
        <ele>595.6</ele>
        <time>2020-10-24T07:40:55Z</time>
      </trkpt>
      <trkpt lat="46.08305" lon="4.59063">
        <ele>595.8</ele>
        <time>2020-10-24T07:40:56Z</time>
      </trkpt>
      <trkpt lat="46.08303" lon="4.59066">
        <ele>596.4</ele>
        <time>2020-10-24T07:40:57Z</time>
      </trkpt>
      <trkpt lat="46.08303" lon="4.59066">
        <ele>596.4</ele>
        <time>2020-10-24T07:40:58Z</time>
      </trkpt>
      <trkpt lat="46.08301" lon="4.59068">
        <ele>596.4</ele>
        <time>2020-10-24T07:40:59Z</time>
      </trkpt>
      <trkpt lat="46.08301" lon="4.59068">
        <ele>596.4</ele>
        <time>2020-10-24T07:41:00Z</time>
      </trkpt>
      <trkpt lat="46.08301" lon="4.59068">
        <ele>596.8</ele>
        <time>2020-10-24T07:41:01Z</time>
      </trkpt>
      <trkpt lat="46.08301" lon="4.59068">
        <ele>597</ele>
        <time>2020-10-24T07:41:02Z</time>
      </trkpt>
      <trkpt lat="46.08299" lon="4.59069">
        <ele>597</ele>
        <time>2020-10-24T07:41:03Z</time>
      </trkpt>
      <trkpt lat="46.08297" lon="4.5907">
        <ele>596.6</ele>
        <time>2020-10-24T07:41:04Z</time>
      </trkpt>
      <trkpt lat="46.08294" lon="4.5907">
        <ele>596.4</ele>
        <time>2020-10-24T07:41:05Z</time>
      </trkpt>
      <trkpt lat="46.08292" lon="4.5907">
        <ele>597</ele>
        <time>2020-10-24T07:41:06Z</time>
      </trkpt>
      <trkpt lat="46.0829" lon="4.59069">
        <ele>597.2</ele>
        <time>2020-10-24T07:41:07Z</time>
      </trkpt>
      <trkpt lat="46.08288" lon="4.59067">
        <ele>597.4</ele>
        <time>2020-10-24T07:41:08Z</time>
      </trkpt>
      <trkpt lat="46.08288" lon="4.59067">
        <ele>597.6</ele>
        <time>2020-10-24T07:41:09Z</time>
      </trkpt>
      <trkpt lat="46.08286" lon="4.59064">
        <ele>597.6</ele>
        <time>2020-10-24T07:41:10Z</time>
      </trkpt>
      <trkpt lat="46.08286" lon="4.59061">
        <ele>597.6</ele>
        <time>2020-10-24T07:41:11Z</time>
      </trkpt>
      <trkpt lat="46.08286" lon="4.59061">
        <ele>597.6</ele>
        <time>2020-10-24T07:41:12Z</time>
      </trkpt>
      <trkpt lat="46.08285" lon="4.59056">
        <ele>597.8</ele>
        <time>2020-10-24T07:41:13Z</time>
      </trkpt>
    </trkseg>
  </trk>
</gpx>